Time;durP1;ratioP1;P1;durP2;ratioP2;P2;SDS_P1;SDS_P2;PMS_P1;PMS_P2;Temp;Humidity;BMP_temperature;BMP_pressure;BME280_temperature;BME280_humidity;BME280_pressure;Samples;Min_cycle;Max_cycle;Signal;HPM_P1;HPM_P2
2022/08/02 00:02:23;;;;;;;3.15;2.38;;;25.80;53.90;26.80;101069.00;;;;5090537;28;20169;-40
2022/08/02 00:04:49;;;;;;;2.90;2.40;;;25.80;54.60;26.70;101074.00;;;;5090396;28;20193;-40
2022/08/02 00:07:16;;;;;;;2.58;2.38;;;25.80;53.90;26.70;101077.00;;;;5089826;28;20213;-40
2022/08/02 00:09:42;;;;;;;3.45;2.30;;;25.70;54.10;26.70;101074.00;;;;5089866;28;20211;-39
2022/08/02 00:12:09;;;;;;;4.65;2.60;;;25.70;54.10;26.70;101078.00;;;;5089816;28;20226;-40
2022/08/02 00:14:34;;;;;;;2.90;2.60;;;25.70;54.10;26.70;101078.00;;;;5090007;28;20177;-39
2022/08/02 00:17:00;;;;;;;2.72;2.30;;;25.70;53.80;26.60;101076.00;;;;5089826;28;20264;-38
2022/08/02 00:19:26;;;;;;;3.10;2.50;;;25.60;53.90;26.60;101078.00;;;;5089707;28;20204;-40
2022/08/02 00:21:51;;;;;;;2.45;2.25;;;25.60;54.00;26.60;101085.00;;;;5089840;28;20173;-40
2022/08/02 00:24:17;;;;;;;2.60;2.40;;;25.60;54.10;26.60;101088.00;;;;5089744;28;20681;-39
2022/08/02 00:26:43;;;;;;;3.55;2.35;;;25.60;54.10;26.50;101088.00;;;;5090528;28;20647;-39
2022/08/02 00:29:09;;;;;;;4.28;2.50;;;25.60;54.10;26.50;101102.00;;;;5095972;28;20204;-41
2022/08/02 00:31:34;;;;;;;2.90;2.47;;;25.60;54.20;26.50;101099.00;;;;5071887;28;20173;-40
2022/08/02 00:34:00;;;;;;;3.75;2.50;;;25.50;54.10;26.50;101086.00;;;;5089662;28;20184;-40
2022/08/02 00:36:26;;;;;;;2.70;2.50;;;25.50;54.20;26.50;101086.00;;;;5089601;28;20177;-39
2022/08/02 00:38:52;;;;;;;2.80;2.40;;;25.50;55.00;26.40;101083.00;;;;5071359;28;20265;-39
2022/08/02 00:41:20;;;;;;;3.15;2.42;;;25.50;54.60;26.40;101083.00;;;;5089822;28;20165;-43
2022/08/02 00:43:47;;;;;;;2.50;2.28;;;25.40;54.50;26.40;101070.00;;;;5090375;28;20563;-40
2022/08/02 00:46:13;;;;;;;2.63;2.30;;;25.50;54.60;26.40;101070.00;;;;5089657;28;20180;-39
2022/08/02 00:48:39;;;;;;;2.50;2.30;;;25.50;54.60;26.40;101069.00;;;;5089227;28;20675;-39
2022/08/02 00:51:05;;;;;;;3.08;2.40;;;25.40;54.50;26.40;101063.00;;;;5089383;28;20298;-40
2022/08/02 00:53:31;;;;;;;2.67;2.20;;;25.40;54.60;26.30;101067.00;;;;5089171;28;20168;-39
2022/08/02 00:55:57;;;;;;;2.60;2.40;;;25.30;54.50;26.30;101065.00;;;;5089421;28;20196;-38
2022/08/02 00:58:23;;;;;;;2.67;2.40;;;25.30;54.50;26.30;101057.00;;;;5088973;28;20232;-41
2022/08/02 01:00:48;;;;;;;2.83;2.20;;;25.30;54.50;26.30;101063.00;;;;5089259;28;20169;-39
2022/08/02 01:03:14;;;;;;;2.80;2.53;;;25.30;54.50;26.20;101060.00;;;;5089389;28;20189;-40
2022/08/02 01:05:40;;;;;;;2.50;2.30;;;25.30;54.50;26.20;101061.00;;;;5089138;28;20203;-40
2022/08/02 01:08:06;;;;;;;2.70;2.35;;;25.30;54.60;26.20;101067.00;;;;5090719;28;20181;-41
2022/08/02 01:10:31;;;;;;;2.60;2.40;;;25.20;54.60;26.20;101066.00;;;;5112004;28;20180;-39
2022/08/02 01:12:57;;;;;;;2.72;2.53;;;25.30;54.70;26.20;101057.00;;;;5110998;28;20177;-39
2022/08/02 01:15:23;;;;;;;2.80;2.60;;;25.20;54.70;26.20;101062.00;;;;5092938;28;20251;-40
2022/08/02 01:18:08;;;;;;;2.47;2.28;;;25.20;54.50;26.10;101068.00;;;;5054065;28;20172;-39
2022/08/02 01:20:52;;;;;;;2.40;2.22;;;25.20;54.70;26.10;101069.00;;;;5055729;28;20179;-41
2022/08/02 01:24:03;;;;;;;2.63;2.38;;;25.20;54.70;26.10;101044.00;;;;5089031;28;20189;-40
2022/08/02 01:27:25;;;;;;;2.60;2.30;;;25.20;54.80;26.10;101054.00;;;;5054695;28;20157;-40
2022/08/02 01:29:53;;;;;;;2.67;2.38;;;25.20;54.80;26.00;101045.00;;;;5068784;28;20292;-40
2022/08/02 01:32:26;;;;;;;2.60;2.40;;;25.10;54.80;26.00;101041.00;;;;5054775;28;20168;-39
2022/08/02 01:34:53;;;;;;;2.70;2.50;;;25.10;54.90;26.00;101049.00;;;;5038599;28;20158;-39
2022/08/02 01:37:39;;;;;;;3.30;2.25;;;25.10;54.90;26.00;101047.00;;;;5070701;28;20172;-40
2022/08/02 01:40:17;;;;;;;2.90;2.60;;;25.10;54.80;25.90;101053.00;;;;5070818;28;20193;-39
2022/08/02 01:42:47;;;;;;;2.85;2.28;;;25.00;54.90;25.90;101037.00;;;;5038362;28;20168;-41
2022/08/02 01:45:13;;;;;;;3.22;2.53;;;25.00;54.90;25.90;101034.00;;;;5038493;28;20149;-40
2022/08/02 01:47:39;;;;;;;4.00;2.70;;;25.00;54.90;25.90;101048.00;;;;5038183;28;20536;-40
2022/08/02 01:50:06;;;;;;;2.72;2.45;;;25.00;54.80;25.90;101041.00;;;;5079859;28;20392;-40
2022/08/02 01:52:34;;;;;;;2.40;2.20;;;25.00;54.80;25.90;101055.00;;;;5062369;28;20170;-39
2022/08/02 01:55:13;;;;;;;2.50;2.30;;;25.00;54.80;25.80;101048.00;;;;5058010;28;20185;-39
2022/08/02 01:57:40;;;;;;;2.80;2.60;;;25.00;54.90;25.80;101051.00;;;;5070172;28;20161;-39
2022/08/02 02:00:08;;;;;;;3.47;2.72;;;24.90;55.10;25.80;101043.00;;;;5054341;28;20192;-40
2022/08/02 02:02:36;;;;;;;3.38;2.70;;;24.90;55.00;25.80;101038.00;;;;5088482;28;20188;-40
2022/08/02 02:05:03;;;;;;;2.60;2.40;;;24.90;55.10;25.70;101035.00;;;;5037765;28;20189;-39
2022/08/02 02:07:30;;;;;;;2.60;2.40;;;24.80;55.10;25.70;101023.00;;;;5070318;28;20177;-41
2022/08/02 02:09:56;;;;;;;2.88;2.65;;;24.80;55.10;25.70;101044.00;;;;5053671;28;20208;-39
2022/08/02 02:12:23;;;;;;;2.63;2.42;;;24.80;55.20;25.70;101038.00;;;;5054794;28;20165;-40
2022/08/02 02:14:48;;;;;;;2.50;2.30;;;24.80;55.10;25.70;101035.00;;;;5074289;28;20172;-41
2022/08/02 02:17:14;;;;;;;5.65;2.90;;;24.80;55.10;25.70;101032.00;;;;5073338;28;20180;-40
2022/08/02 02:19:40;;;;;;;2.80;2.55;;;24.90;55.20;25.70;101042.00;;;;5073807;28;20185;-40
2022/08/02 02:22:06;;;;;;;2.60;2.40;;;24.80;55.10;25.70;101038.00;;;;5057451;28;20229;-39
2022/08/02 02:24:31;;;;;;;2.70;2.50;;;24.80;55.00;25.60;101036.00;;;;5073777;28;20245;-39
2022/08/02 02:27:00;;;;;;;3.03;2.50;;;24.80;55.00;25.60;101033.00;;;;5057186;28;20251;-40
2022/08/02 02:29:27;;;;;;;3.03;2.50;;;24.70;55.00;25.60;101024.00;;;;5074215;28;20201;-40
2022/08/02 02:31:53;;;;;;;3.42;2.67;;;24.70;55.00;25.60;101031.00;;;;5057386;28;20165;-40
2022/08/02 02:34:32;;;;;;;3.15;2.70;;;24.70;55.60;25.60;101020.00;;;;5057222;28;20537;-40
2022/08/02 02:37:01;;;;;;;2.75;2.55;;;24.70;54.80;25.50;101017.00;;;;5038353;28;20274;-39
2022/08/02 02:39:27;;;;;;;2.70;2.50;;;24.70;54.90;25.50;100964.00;;;;5072332;28;20239;-40
2022/08/02 02:41:54;;;;;;;3.42;2.40;;;24.70;54.90;25.50;101023.00;;;;5069691;28;20604;-39
2022/08/02 02:44:20;;;;;;;4.53;2.60;;;24.70;55.00;25.50;101019.00;;;;5069951;28;20209;-39
2022/08/02 02:46:49;;;;;;;3.38;2.75;;;24.70;55.00;25.50;101018.00;;;;5069994;28;20252;-38
2022/08/02 02:49:15;;;;;;;2.45;2.30;;;24.70;55.10;25.50;101014.00;;;;5069372;28;20182;-40
2022/08/02 02:51:41;;;;;;;3.25;2.40;;;24.60;55.00;25.40;101021.00;;;;5053436;28;20170;-38
2022/08/02 02:54:07;;;;;;;2.70;2.50;;;24.70;55.10;25.40;101012.00;;;;5053376;28;20166;-39
2022/08/02 02:56:34;;;;;;;3.45;2.45;;;24.60;55.00;25.40;101017.00;;;;5070027;28;20165;-40
2022/08/02 02:59:00;;;;;;;2.95;2.53;;;24.50;55.60;25.40;101023.00;;;;5052668;28;20215;-40
2022/08/02 03:01:31;;;;;;;3.08;2.80;;;24.50;54.90;25.40;101013.00;;;;5069689;28;20639;-38
2022/08/02 03:04:01;;;;;;;2.95;2.60;;;24.50;55.00;25.30;101006.00;;;;5069569;28;20652;-40
2022/08/02 03:06:28;;;;;;;3.50;2.60;;;24.50;55.00;25.30;101009.00;;;;5070032;28;20215;-40
2022/08/02 03:08:54;;;;;;;2.60;2.40;;;24.50;55.00;25.30;101001.00;;;;5069075;28;20523;-39
2022/08/02 03:11:20;;;;;;;2.60;2.40;;;24.50;55.10;25.30;101001.00;;;;5077760;28;20245;-39
2022/08/02 03:13:45;;;;;;;3.42;2.50;;;24.40;55.00;25.30;101001.00;;;;5078683;28;20668;-39
2022/08/02 03:16:11;;;;;;;2.80;2.60;;;24.40;55.10;25.30;101006.00;;;;5070491;28;20865;-40
2022/08/02 03:18:42;;;;;;;2.67;2.47;;;24.40;55.10;25.30;101008.00;;;;5070500;28;20243;-39
2022/08/02 03:21:10;;;;;;;3.00;2.70;;;24.40;55.10;25.20;101004.00;;;;5070211;28;20212;-39
2022/08/02 03:23:37;;;;;;;2.70;2.50;;;24.40;55.10;25.20;101011.00;;;;5070320;28;20193;-40
2022/08/02 03:26:03;;;;;;;2.73;2.40;;;24.40;55.00;25.20;101005.00;;;;5070424;28;20169;-39
2022/08/02 03:28:29;;;;;;;2.80;2.60;;;24.40;55.10;25.20;101004.00;;;;5070409;28;20222;-40
2022/08/02 03:30:55;;;;;;;5.03;2.70;;;24.40;55.30;25.20;101002.00;;;;5070090;28;20249;-40
2022/08/02 03:33:21;;;;;;;4.50;2.60;;;24.40;55.30;25.20;101003.00;;;;5070867;28;20264;-40
2022/08/02 03:35:47;;;;;;;3.40;2.60;;;24.30;55.20;25.10;100999.00;;;;5070049;28;20570;-39
2022/08/02 03:38:14;;;;;;;2.90;2.60;;;24.30;55.20;25.10;101000.00;;;;5070490;28;20390;-39
2022/08/02 03:40:41;;;;;;;3.80;2.60;;;24.30;55.10;25.10;100991.00;;;;5068624;28;20150;-38
2022/08/02 03:43:06;;;;;;;3.70;2.40;;;24.30;55.00;25.10;100997.00;;;;5068876;28;20190;-38
2022/08/02 03:45:32;;;;;;;4.80;4.30;;;24.30;55.10;25.10;100999.00;;;;5052065;28;20166;-39
2022/08/02 03:47:58;;;;;;;6.10;5.30;;;24.20;55.00;25.10;101001.00;;;;5051784;28;20166;-39
2022/08/02 03:50:24;;;;;;;4.70;4.20;;;24.20;55.00;25.10;101000.00;;;;5068187;28;20165;-38
2022/08/02 03:52:50;;;;;;;3.30;3.00;;;24.20;55.00;25.00;100997.00;;;;5070499;28;20215;-38
2022/08/02 03:55:16;;;;;;;4.20;3.10;;;24.20;55.00;25.00;100991.00;;;;5069809;28;20635;-39
2022/08/02 03:57:42;;;;;;;5.38;3.05;;;24.20;55.00;25.00;100993.00;;;;5067459;28;20240;-38
2022/08/02 04:00:16;;;;;;;3.20;2.90;;;24.20;54.90;25.00;100995.00;;;;5069055;28;20189;-38
2022/08/02 04:02:41;;;;;;;3.27;2.73;;;24.10;54.90;25.00;100998.00;;;;5069701;28;20637;-39
2022/08/02 04:05:07;;;;;;;3.27;2.80;;;24.10;54.90;24.90;101002.00;;;;5069623;28;20174;-40
2022/08/02 04:07:33;;;;;;;3.73;2.83;;;24.10;54.90;24.90;100991.00;;;;5079001;28;20169;-39
2022/08/02 04:09:59;;;;;;;2.77;2.57;;;24.10;54.90;24.90;101005.00;;;;5080581;28;20193;-39
2022/08/02 04:12:25;;;;;;;3.20;2.90;;;24.10;54.90;24.90;101009.00;;;;5071124;28;20170;-38
2022/08/02 04:14:50;;;;;;;3.37;3.07;;;24.00;54.90;24.90;101008.00;;;;5051659;28;20754;-40
2022/08/02 04:17:16;;;;;;;3.33;2.70;;;24.10;54.90;24.80;101002.00;;;;5051104;28;20180;-38
2022/08/02 04:19:49;;;;;;;2.90;2.60;;;24.00;54.90;24.80;101008.00;;;;5064538;28;20192;-38
2022/08/02 04:22:22;;;;;;;2.90;2.70;;;24.00;54.90;24.80;101010.00;;;;5080672;28;20190;-39
2022/08/02 04:24:56;;;;;;;3.03;2.80;;;24.00;54.90;24.80;100999.00;;;;5087939;28;20189;-39
2022/08/02 04:27:21;;;;;;;4.17;2.57;;;24.00;54.90;24.80;100994.00;;;;5103981;28;20221;-39
2022/08/02 04:29:47;;;;;;;3.27;2.83;;;24.00;55.00;24.80;100998.00;;;;5110056;28;20184;-39
2022/08/02 04:32:14;;;;;;;5.03;2.90;;;23.90;55.00;24.80;101020.00;;;;5098530;28;20177;-39
2022/08/02 04:34:39;;;;;;;3.60;2.80;;;23.90;55.10;24.70;101012.00;;;;5087341;28;20666;-39
2022/08/02 04:37:05;;;;;;;3.47;2.70;;;23.80;55.10;24.70;101002.00;;;;5089107;28;20241;-39
2022/08/02 04:39:31;;;;;;;3.10;2.80;;;23.80;55.20;24.70;101022.00;;;;5087378;28;20584;-39
2022/08/02 04:41:56;;;;;;;2.97;2.67;;;23.80;55.20;24.70;101014.00;;;;5087907;28;20173;-40
2022/08/02 04:44:22;;;;;;;2.87;2.60;;;23.80;55.10;24.70;101014.00;;;;5088730;28;20201;-39
2022/08/02 04:46:48;;;;;;;6.83;3.43;;;23.80;55.20;24.70;101014.00;;;;5087743;28;20169;-38
2022/08/02 04:49:14;;;;;;;4.97;3.10;;;23.80;55.50;24.60;101013.00;;;;5070661;28;20188;-39
2022/08/02 04:51:41;;;;;;;3.47;3.17;;;23.80;55.40;24.60;101015.00;;;;5088924;28;20186;-39
2022/08/02 04:54:08;;;;;;;3.83;3.00;;;23.80;55.50;24.60;101023.00;;;;5088163;28;20263;-38
2022/08/02 04:56:33;;;;;;;3.50;3.20;;;23.70;55.40;24.60;101016.00;;;;5089329;28;20271;-38
2022/08/02 04:58:59;;;;;;;3.27;2.97;;;23.70;55.60;24.60;101018.00;;;;5087758;28;20267;-38
2022/08/02 05:01:26;;;;;;;3.23;2.93;;;23.70;55.70;24.50;101023.00;;;;5088334;28;20181;-39
2022/08/02 05:03:51;;;;;;;2.97;2.67;;;23.70;55.50;24.50;101027.00;;;;5088374;28;20196;-39
2022/08/02 05:06:20;;;;;;;3.17;2.90;;;23.70;55.50;24.50;101018.00;;;;5086774;28;20177;-39
2022/08/02 05:08:47;;;;;;;3.30;3.00;;;23.70;55.60;24.50;101027.00;;;;5087665;28;20612;-39
2022/08/02 05:11:12;;;;;;;3.83;3.53;;;23.70;55.70;24.50;101016.00;;;;5088439;28;20165;-39
2022/08/02 05:13:40;;;;;;;3.50;3.20;;;23.60;55.80;24.50;101020.00;;;;5088897;28;20540;-39
2022/08/02 05:16:06;;;;;;;4.17;3.60;;;23.60;55.70;24.50;100963.00;;;;5087449;28;20184;-38
2022/08/02 05:18:32;;;;;;;4.53;3.50;;;23.60;56.20;24.50;101026.00;;;;5088574;28;20185;-39
2022/08/02 05:20:57;;;;;;;3.90;3.10;;;23.60;56.40;24.40;101020.00;;;;5088182;28;20169;-38
2022/08/02 05:23:23;;;;;;;3.37;3.07;;;23.60;56.00;24.40;101018.00;;;;5088461;28;20238;-38
2022/08/02 05:25:49;;;;;;;4.80;3.07;;;23.60;56.10;24.40;101018.00;;;;5089137;28;20390;-38
2022/08/02 05:28:14;;;;;;;4.63;3.23;;;23.60;56.10;24.40;101024.00;;;;5087930;28;20804;-39
2022/08/02 05:30:40;;;;;;;3.57;3.20;;;23.60;56.60;24.40;101016.00;;;;5091371;28;20169;-39
2022/08/02 05:33:06;;;;;;;4.03;3.30;;;23.60;56.20;24.40;101012.00;;;;5095780;28;20177;-39
2022/08/02 05:35:32;;;;;;;3.33;3.03;;;23.60;56.30;24.40;101021.00;;;;5091034;28;20176;-39
2022/08/02 05:37:58;;;;;;;4.40;3.43;;;23.60;56.40;24.40;101022.00;;;;5088457;28;20521;-39
2022/08/02 05:40:24;;;;;;;4.63;3.70;;;23.60;56.50;24.40;101024.00;;;;5088128;28;20168;-39
2022/08/02 05:42:50;;;;;;;4.67;3.40;;;23.60;56.60;24.40;101021.00;;;;5088501;28;20187;-39
2022/08/02 05:45:16;;;;;;;4.20;3.23;;;23.50;56.80;24.30;101018.00;;;;5088440;28;20188;-39
2022/08/02 05:47:42;;;;;;;4.80;3.10;;;23.50;56.60;24.30;101024.00;;;;5090103;28;20291;-39
2022/08/02 05:50:09;;;;;;;3.33;3.03;;;23.50;56.60;24.30;101024.00;;;;5092323;28;20204;-39
2022/08/02 05:52:48;;;;;;;5.20;3.30;;;23.50;56.80;24.30;101025.00;;;;5092575;28;20169;-39
2022/08/02 05:55:19;;;;;;;3.60;3.30;;;23.50;57.00;24.30;101019.00;;;;5092639;28;20206;-39
2022/08/02 05:58:12;;;;;;;3.33;3.03;;;23.50;56.90;24.30;101024.00;;;;5090557;28;20153;-38
2022/08/02 06:00:39;;;;;;;3.60;3.30;;;23.50;56.90;24.20;101034.00;;;;5091865;28;20176;-38
2022/08/02 06:03:17;;;;;;;3.87;3.57;;;23.50;57.10;24.20;101028.00;;;;5091309;28;20196;-38
2022/08/02 06:06:13;;;;;;;3.53;3.23;;;23.50;57.60;24.20;101026.00;;;;5108243;28;20153;-38
2022/08/02 06:08:43;;;;;;;3.53;3.23;;;23.40;57.50;24.20;101017.00;;;;5094951;28;20209;-38
2022/08/02 06:11:15;;;;;;;4.60;3.50;;;23.40;57.30;24.20;101027.00;;;;5092962;28;20236;-38
2022/08/02 06:13:41;;;;;;;5.03;3.40;;;23.40;57.30;24.20;101020.00;;;;5091986;28;20218;-39
2022/08/02 06:16:07;;;;;;;4.13;3.23;;;23.40;57.50;24.20;101033.00;;;;5092300;28;20169;-38
2022/08/02 06:18:33;;;;;;;3.60;3.30;;;23.40;57.50;24.10;101025.00;;;;5092067;28;20181;-38
2022/08/02 06:21:02;;;;;;;4.37;3.40;;;23.40;57.70;24.10;101036.00;;;;5092085;28;20169;-38
2022/08/02 06:23:28;;;;;;;4.67;3.30;;;23.40;58.00;24.10;101030.00;;;;5092488;28;20189;-38
2022/08/02 06:25:55;;;;;;;3.77;3.40;;;23.40;58.30;24.10;101037.00;;;;5090853;28;20163;-38
2022/08/02 06:28:21;;;;;;;4.23;3.20;;;23.40;57.90;24.10;101026.00;;;;5090828;28;20242;-39
2022/08/02 06:30:47;;;;;;;3.50;3.20;;;23.40;58.00;24.10;101018.00;;;;5089826;28;20165;-39
2022/08/02 06:33:13;;;;;;;3.47;3.17;;;23.40;59.00;24.10;101016.00;;;;5094709;28;20273;-40
2022/08/02 06:35:51;;;;;;;3.20;2.90;;;23.40;58.00;24.00;101025.00;;;;5098538;28;20173;-38
2022/08/02 06:38:21;;;;;;;3.50;3.03;;;23.40;58.20;24.00;101011.00;;;;5092209;28;20192;-40
2022/08/02 06:40:58;;;;;;;3.73;3.33;;;23.40;58.80;24.00;101016.00;;;;5090085;28;20158;-39
2022/08/02 06:43:54;;;;;;;4.23;3.33;;;23.40;59.10;24.00;101017.00;;;;5090703;28;20184;-40
2022/08/02 06:46:20;;;;;;;5.07;3.47;;;23.30;58.80;24.00;101019.00;;;;5074398;28;20149;-38
2022/08/02 06:48:45;;;;;;;3.00;2.80;;;23.30;58.90;24.00;101018.00;;;;5073000;28;20326;-39
2022/08/02 06:51:11;;;;;;;3.77;3.10;;;23.40;58.80;24.00;101020.00;;;;5090986;28;20256;-39
2022/08/02 06:53:37;;;;;;;4.87;3.33;;;23.40;58.90;24.00;101023.00;;;;5091936;28;20287;-38
2022/08/02 06:56:03;;;;;;;3.47;3.07;;;23.40;59.30;24.00;101020.00;;;;5093082;28;20180;-39
2022/08/02 06:58:29;;;;;;;3.40;3.10;;;23.40;59.10;24.00;101015.00;;;;5090993;28;20192;-41
2022/08/02 07:00:55;;;;;;;4.80;3.30;;;23.30;59.10;24.00;101010.00;;;;5091450;28;20564;-39
2022/08/02 07:03:20;;;;;;;3.37;3.07;;;23.30;59.10;23.80;100984.00;;;;4986941;28;20220;-39
2022/08/02 07:05:47;;;;;;;3.17;2.80;;;23.30;59.00;23.90;101029.00;;;;5050750;28;20173;-39
2022/08/02 07:08:16;;;;;;;4.03;3.10;;;23.30;59.10;23.90;101014.00;;;;5087509;28;20265;-39
2022/08/02 07:10:42;;;;;;;3.47;3.10;;;23.30;59.20;24.00;101031.00;;;;5052016;28;20177;-39
2022/08/02 07:13:08;;;;;;;3.33;3.03;;;23.30;59.30;23.90;101030.00;;;;5068933;28;20227;-39
2022/08/02 07:15:34;;;;;;;3.33;3.00;;;23.30;59.40;23.90;101016.00;;;;5069801;28;20535;-39
2022/08/02 07:17:59;;;;;;;3.57;3.20;;;23.20;59.40;23.90;101026.00;;;;5051996;28;20162;-39
2022/08/02 07:20:25;;;;;;;3.40;3.10;;;23.20;60.10;23.90;101017.00;;;;5069599;28;20269;-39
2022/08/02 07:22:51;;;;;;;4.23;3.17;;;23.20;59.90;23.90;101014.00;;;;5070040;28;20249;-39
2022/08/02 07:25:17;;;;;;;6.60;3.50;;;23.20;59.80;23.90;101018.00;;;;5070946;28;20166;-39
2022/08/02 07:27:43;;;;;;;4.73;3.20;;;23.20;60.10;23.90;101023.00;;;;5069946;28;20174;-39
2022/08/02 07:30:09;;;;;;;3.70;3.30;;;23.20;60.30;23.90;101016.00;;;;5069555;28;20189;-39
2022/08/02 07:32:35;;;;;;;3.97;3.10;;;23.20;60.50;23.90;101020.00;;;;5070004;28;20257;-39
2022/08/02 07:35:01;;;;;;;3.90;2.87;;;23.20;60.20;23.90;101015.00;;;;5069697;28;20253;-40
2022/08/02 07:37:30;;;;;;;4.37;3.27;;;23.20;60.10;23.90;101022.00;;;;5069608;28;20182;-40
2022/08/02 07:39:56;;;;;;;5.70;3.27;;;23.20;60.10;23.90;101003.00;;;;5069315;28;20201;-40
2022/08/02 07:42:21;;;;;;;3.67;3.00;;;23.20;60.40;23.90;101020.00;;;;5069403;28;20170;-39
2022/08/02 07:44:47;;;;;;;3.33;2.77;;;23.20;60.10;23.90;101017.00;;;;5069594;28;20560;-39
2022/08/02 07:47:13;;;;;;;2.93;2.70;;;23.20;60.00;23.90;101016.00;;;;5081649;28;20203;-39
2022/08/02 07:49:38;;;;;;;3.20;2.90;;;23.20;60.10;23.90;101010.00;;;;5092602;28;20174;-39
2022/08/02 07:52:04;;;;;;;3.33;2.87;;;23.20;60.10;23.90;101013.00;;;;5088485;28;20177;-39
2022/08/02 07:54:30;;;;;;;3.90;3.23;;;23.20;60.40;23.90;101005.00;;;;5068841;28;20177;-40
2022/08/02 07:56:56;;;;;;;3.87;3.20;;;23.20;60.80;23.90;101014.00;;;;5073599;28;20184;-39
2022/08/02 07:59:21;;;;;;;3.40;2.97;;;23.30;60.80;23.90;101024.00;;;;5088816;28;20683;-40
2022/08/02 08:01:48;;;;;;;3.07;2.73;;;23.30;60.60;23.90;101006.00;;;;5088989;28;20173;-38
2022/08/02 08:04:15;;;;;;;3.10;2.87;;;23.30;60.40;23.90;101010.00;;;;4960414;28;20221;-39
2022/08/02 08:06:41;;;;;;;3.83;3.00;;;23.30;60.10;24.00;101001.00;;;;5068960;28;20620;-39
2022/08/02 08:09:06;;;;;;;4.50;2.73;;;23.30;60.00;24.00;100996.00;;;;5068186;28;20197;-39
2022/08/02 08:11:32;;;;;;;3.00;2.60;;;23.30;60.10;24.00;101000.00;;;;5067954;28;20369;-39
2022/08/02 08:13:58;;;;;;;3.13;2.83;;;23.30;60.10;24.00;101005.00;;;;5069045;28;20173;-39
2022/08/02 08:16:25;;;;;;;4.10;2.90;;;23.30;60.00;24.00;100990.00;;;;5068198;28;20166;-39
2022/08/02 08:18:51;;;;;;;2.97;2.60;;;23.30;60.00;24.00;100990.00;;;;5068340;28;20634;-39
2022/08/02 08:21:18;;;;;;;2.90;2.60;;;23.40;59.80;24.00;100988.00;;;;5073533;28;20635;-38
2022/08/02 08:23:44;;;;;;;2.80;2.60;;;23.30;59.80;24.00;100986.00;;;;5054665;28;20255;-38
2022/08/02 08:26:10;;;;;;;2.60;2.40;;;23.30;59.80;24.00;101001.00;;;;5069044;28;20309;-38
2022/08/02 08:28:35;;;;;;;2.90;2.60;;;23.30;59.80;24.00;100994.00;;;;5068283;28;20264;-39
2022/08/02 08:31:01;;;;;;;3.30;2.80;;;23.40;59.90;24.00;100998.00;;;;5068650;28;20176;-39
2022/08/02 08:33:27;;;;;;;4.30;2.80;;;23.40;59.70;24.00;100986.00;;;;5068546;28;20860;-40
2022/08/02 08:35:53;;;;;;;3.20;2.63;;;23.40;59.50;24.00;100989.00;;;;5068481;28;20196;-39
2022/08/02 08:38:20;;;;;;;3.17;2.67;;;23.40;59.50;24.00;100981.00;;;;5050277;28;20233;-39
2022/08/02 08:40:49;;;;;;;4.03;2.77;;;23.40;59.50;24.00;100989.00;;;;5068264;28;20181;-38
2022/08/02 08:43:15;;;;;;;3.30;2.97;;;23.40;59.50;24.10;100988.00;;;;5067812;28;20202;-39
2022/08/02 08:45:43;;;;;;;2.80;2.50;;;23.40;59.60;24.10;100991.00;;;;5068246;28;20170;-39
2022/08/02 08:48:15;;;;;;;2.90;2.60;;;23.40;59.40;24.10;100984.00;;;;5067828;28;20166;-40
2022/08/02 08:50:52;;;;;;;2.93;2.60;;;23.40;59.30;24.10;100978.00;;;;5050456;28;20181;-38
2022/08/02 08:53:18;;;;;;;2.73;2.53;;;23.40;59.30;24.10;100984.00;;;;5050784;28;20162;-39
2022/08/02 08:55:44;;;;;;;4.93;2.90;;;23.40;59.10;24.10;100985.00;;;;5049846;28;20196;-39
2022/08/02 08:58:10;;;;;;;2.90;2.70;;;23.40;59.50;24.10;100981.00;;;;5061392;28;20185;-39
2022/08/02 09:00:35;;;;;;;3.57;2.77;;;23.40;59.50;24.20;100978.00;;;;5039957;28;20205;-39
2022/08/02 09:03:03;;;;;;;3.13;2.73;;;23.50;59.60;24.20;100977.00;;;;5066995;28;20205;-39
2022/08/02 09:05:29;;;;;;;3.10;2.80;;;23.50;59.60;24.20;100967.00;;;;5026792;28;20235;-39
2022/08/02 09:07:54;;;;;;;3.77;2.90;;;23.50;59.60;24.20;100978.00;;;;5072241;28;20178;-39
2022/08/02 09:10:38;;;;;;;4.37;3.00;;;23.60;59.80;24.20;100977.00;;;;5069939;28;20660;-39
2022/08/02 09:13:22;;;;;;;3.57;3.00;;;23.60;59.80;24.20;100968.00;;;;5072075;28;20256;-39
2022/08/02 09:16:02;;;;;;;3.97;3.30;;;23.60;59.60;24.20;100963.00;;;;5071391;28;20173;-39
2022/08/02 09:18:47;;;;;;;3.50;3.20;;;23.60;59.50;24.30;100966.00;;;;5069284;28;20192;-39
2022/08/02 09:21:14;;;;;;;3.50;3.20;;;23.70;59.70;24.30;100962.00;;;;5070280;28;20232;-39
2022/08/02 09:23:48;;;;;;;5.40;3.20;;;23.60;59.30;24.30;100957.00;;;;5071858;28;20622;-39
2022/08/02 09:26:22;;;;;;;4.07;3.17;;;23.60;59.60;24.30;100966.00;;;;5071779;28;20162;-40
2022/08/02 09:28:50;;;;;;;4.80;2.90;;;23.70;59.70;24.30;100959.00;;;;5077962;28;20212;-39
2022/08/02 09:31:21;;;;;;;4.40;3.30;;;23.70;59.70;24.30;100951.00;;;;5075226;28;20173;-39
2022/08/02 09:33:55;;;;;;;3.60;3.30;;;23.80;59.80;24.40;100951.00;;;;5071598;28;20227;-40
2022/08/02 09:36:21;;;;;;;4.73;3.20;;;23.80;60.20;24.40;100951.00;;;;5071599;28;20644;-40
2022/08/02 09:39:00;;;;;;;6.93;3.10;;;23.80;59.80;24.40;100945.00;;;;5089845;28;20204;-40
2022/08/02 09:41:28;;;;;;;9.90;3.37;;;23.90;60.10;24.50;100949.00;;;;5074009;28;20173;-39
2022/08/02 09:43:55;;;;;;;3.40;3.10;;;23.90;60.20;24.50;100953.00;;;;5091549;28;20196;-40
2022/08/02 09:46:26;;;;;;;6.70;3.30;;;24.00;59.50;24.50;100964.00;;;;5103532;28;20207;-39
2022/08/02 09:49:00;;;;;;;3.87;3.30;;;24.00;59.00;24.50;100955.00;;;;5099589;28;20227;-39
2022/08/02 09:51:31;;;;;;;4.23;3.33;;;24.10;58.40;24.60;100959.00;;;;5091356;28;20253;-39
2022/08/02 09:53:59;;;;;;;4.03;3.63;;;24.10;58.30;24.60;100949.00;;;;5091542;28;20165;-39
2022/08/02 09:56:27;;;;;;;4.50;3.30;;;24.10;58.30;24.60;100945.00;;;;5088375;28;20699;-40
2022/08/02 09:58:53;;;;;;;4.43;3.37;;;24.10;58.30;24.60;100945.00;;;;5073550;28;20194;-39
2022/08/02 10:01:32;;;;;;;4.43;3.37;;;24.10;58.50;24.70;100953.00;;;;5080702;28;20259;-38
2022/08/02 10:04:03;;;;;;;5.20;3.30;;;24.10;58.50;24.70;100945.00;;;;5020219;28;20221;-39
2022/08/02 10:06:30;;;;;;;3.40;3.10;;;24.10;58.40;24.70;100955.00;;;;5053516;28;20550;-39
2022/08/02 10:08:56;;;;;;;5.17;3.37;;;24.20;58.60;24.70;100949.00;;;;5070412;28;20219;-38
2022/08/02 10:11:23;;;;;;;3.53;3.23;;;24.20;58.50;24.80;100945.00;;;;5052994;28;20640;-39
2022/08/02 10:13:49;;;;;;;4.37;3.30;;;24.20;58.30;24.80;100945.00;;;;5070873;28;20261;-39
2022/08/02 10:16:16;;;;;;;4.13;3.40;;;24.30;58.70;24.80;100942.00;;;;5070608;28;20177;-39
2022/08/02 10:18:42;;;;;;;3.70;3.20;;;24.30;58.60;24.80;100933.00;;;;5070504;28;20242;-38
2022/08/02 10:21:38;;;;;;;4.17;3.50;;;24.30;59.30;24.90;100933.00;;;;5070630;28;20177;-38
2022/08/02 10:24:30;;;;;;;4.47;3.40;;;24.40;58.90;24.90;100926.00;;;;5070166;28;20278;-39
2022/08/02 10:26:57;;;;;;;4.57;3.40;;;24.40;58.80;25.00;100927.00;;;;5069850;28;20182;-39
2022/08/02 10:29:29;;;;;;;5.80;3.20;;;24.40;58.30;25.00;100939.00;;;;5052668;28;20232;-39
2022/08/02 10:31:57;;;;;;;3.63;3.33;;;24.40;58.50;25.00;100920.00;;;;5070233;28;20158;-41
2022/08/02 10:34:30;;;;;;;3.50;3.20;;;24.50;58.70;25.10;100906.00;;;;5051394;28;20177;-41
2022/08/02 10:36:55;;;;;;;4.47;2.90;;;24.80;57.80;25.20;100916.00;;;;5036604;28;20193;-41
2022/08/02 10:39:21;;;;;;;4.53;2.97;;;24.90;57.70;25.30;100903.00;;;;5088101;28;20236;-42
2022/08/02 10:41:51;;;;;;;3.80;3.07;;;25.00;56.50;25.40;100910.00;;;;5090628;28;20759;-42
2022/08/02 10:44:31;;;;;;;5.83;2.90;;;25.00;56.20;25.50;100909.00;;;;5090883;28;20200;-42
2022/08/02 10:47:24;;;;;;;4.03;3.17;;;25.20;55.10;25.60;100912.00;;;;5090172;28;20214;-41
2022/08/02 10:49:58;;;;;;;3.38;2.90;;;25.40;54.50;25.60;100910.00;;;;5090577;28;20303;-42
2022/08/02 10:52:26;;;;;;;3.67;2.97;;;25.30;55.40;25.70;100907.00;;;;5090145;28;20238;-42
2022/08/02 10:55:11;;;;;;;6.67;3.30;;;25.40;55.20;25.80;100901.00;;;;5090167;28;20173;-43